0TS6 weather

Harris County Courthouse Heliport
Houston, Texas, United States

Public forecast

Using degrees Fahrenheit for public forecast. Weather courtesy of forecast.io.

METAR (pilot weather report)

Closest report is Sugar Land Regional Airport, 10.9 nm (20.2 km) WSW. Retrieved 2019/07/19 10:53 UTC (31 minutes ago):

KSGR 191053Z 16004KT 10SM CLR 25/24 A2998 RMK AO2 SLP152 T02500244

TAF (pilot weather forecast)

Closest forecast is Sugar Land Regional Airport, 10.9 nm (20.2 km) WSW. Retrieved 2019/07/19 06:22 UTC (5 hours ago):

TAF KSGR 190520Z 1906/2006 16011KT P6SM SCT040 SCT250 FM190700 16004KT P6SM FEW015 FM191400 18009KT P6SM SCT025 FM192000 17011KT P6SM SCT050